createdAt,value
2023-01-28T00:00:22.446Z,9.05
2023-01-28T00:05:24.046Z,9.00
2023-01-28T00:10:28.427Z,9.32
2023-01-28T00:15:36.008Z,9.27
2023-01-28T00:20:37.580Z,7.95
2023-01-28T00:25:39.201Z,8.90
2023-01-28T00:30:40.781Z,9.55
2023-01-28T00:35:44.601Z,9.85
2023-01-28T00:40:49.169Z,9.38
2023-01-28T00:45:50.755Z,8.82
2023-01-28T00:50:53.555Z,7.13
2023-01-28T00:55:55.259Z,8.07
2023-01-28T01:00:56.794Z,9.40
2023-01-28T01:05:58.706Z,9.40
2023-01-28T01:11:07.110Z,10.23
2023-01-28T01:16:13.497Z,9.60
2023-01-28T01:21:19.643Z,10.20
2023-01-28T01:26:24.897Z,9.93
2023-01-28T01:31:28.983Z,10.73
2023-01-28T01:36:33.947Z,9.75
2023-01-28T01:41:35.541Z,9.30
2023-01-28T01:46:50.747Z,9.77
2023-01-28T01:52:07.492Z,8.88
2023-01-28T01:57:16.082Z,9.20
2023-01-28T02:02:20.363Z,9.75
2023-01-28T02:07:21.955Z,9.65
2023-01-28T02:12:32.700Z,10.25
2023-01-28T02:17:39.304Z,8.43
2023-01-28T02:23:18.065Z,8.75
2023-01-28T02:28:40.995Z,7.93
2023-01-28T02:34:17.730Z,8.80
2023-01-28T02:39:24.726Z,9.53
2023-01-28T02:44:29.455Z,8.80
2023-01-28T02:49:38.437Z,9.02
2023-01-28T02:54:45.538Z,8.80
2023-01-28T03:00:02.961Z,9.02
2023-01-28T03:05:15.845Z,9.23
2023-01-28T03:10:21.711Z,10.25
2023-01-28T03:15:50.590Z,9.68
2023-01-28T03:21:16.936Z,9.15
2023-01-28T03:26:42.910Z,9.95
2023-01-28T03:32:03.374Z,9.68
2023-01-28T03:37:11.963Z,9.68
2023-01-28T03:42:37.940Z,10.15
2023-01-28T03:48:00.776Z,10.95
2023-01-28T03:53:16.423Z,11.88
2023-01-28T03:58:46.305Z,12.52
2023-01-28T04:03:51.785Z,12.20
2023-01-28T04:08:59.584Z,12.00
2023-01-28T04:14:15.232Z,11.80
2023-01-28T04:19:30.675Z,11.82
2023-01-28T04:24:33.480Z,11.88
2023-01-28T04:29:35.019Z,12.10
2023-01-28T04:35:00.513Z,10.80
2023-01-28T04:40:13.780Z,11.07
2023-01-28T04:45:17.622Z,11.43
2023-01-28T04:50:44.429Z,10.27
2023-01-28T04:56:08.046Z,10.73
2023-01-28T05:01:10.787Z,11.05
2023-01-28T05:06:12.472Z,11.20
2023-01-28T05:11:17.042Z,10.65
2023-01-28T05:16:21.808Z,11.25
2023-01-28T05:21:23.493Z,10.52
2023-01-28T05:26:33.856Z,11.07
2023-01-28T05:31:36.139Z,11.45
2023-01-28T05:36:41.216Z,11.07
2023-01-28T05:41:58.640Z,10.43
2023-01-28T05:47:01.829Z,10.57
2023-01-28T05:52:24.241Z,10.80
2023-01-28T05:57:28.361Z,10.27
2023-01-28T06:02:32.713Z,9.80
2023-01-28T06:07:37.664Z,9.88
2023-01-28T06:12:43.391Z,9.95
2023-01-28T06:18:12.190Z,10.23
2023-01-28T06:23:14.111Z,10.45
2023-01-28T06:28:24.611Z,10.63
2023-01-28T06:33:30.825Z,10.10
2023-01-28T06:38:37.256Z,9.43
2023-01-28T06:43:38.770Z,9.98
2023-01-28T06:48:42.653Z,8.85
2023-01-28T06:53:46.473Z,9.18
2023-01-28T06:58:49.014Z,9.73
2023-01-28T07:03:52.902Z,9.38
2023-01-28T07:08:56.820Z,10.15
2023-01-28T07:14:05.122Z,9.80
2023-01-28T07:19:06.594Z,9.55
2023-01-28T07:24:08.431Z,10.85
2023-01-28T07:29:11.108Z,10.43
2023-01-28T07:34:12.907Z,9.77
2023-01-28T07:39:17.439Z,11.15
2023-01-28T07:44:18.946Z,10.80
2023-01-28T07:49:22.805Z,11.90
2023-01-28T07:54:24.348Z,11.75
2023-01-28T07:59:28.131Z,11.15
2023-01-28T08:04:32.956Z,11.50
2023-01-28T08:09:34.647Z,10.60
2023-01-28T08:14:38.686Z,10.68
2023-01-28T08:19:40.187Z,11.30
2023-01-28T08:24:41.773Z,11.85
2023-01-28T08:29:43.972Z,12.52
2023-01-28T08:34:46.527Z,13.73
2023-01-28T08:39:50.860Z,12.93
2023-01-28T08:44:52.356Z,12.23
2023-01-28T08:49:54.040Z,11.32
2023-01-28T08:54:58.920Z,12.65
2023-01-28T09:00:07.787Z,11.27
2023-01-28T09:05:15.293Z,11.10
2023-01-28T09:10:20.560Z,12.30
2023-01-28T09:15:25.285Z,10.35
2023-01-28T09:20:27.666Z,12.13
2023-01-28T09:25:32.409Z,11.10
2023-01-28T09:30:37.258Z,10.68
2023-01-28T09:35:39.079Z,11.18
2023-01-28T09:40:45.521Z,10.90
2023-01-28T09:45:55.627Z,11.00
2023-01-28T09:50:57.401Z,10.10
2023-01-28T09:56:07.270Z,10.20
2023-01-28T10:01:40.899Z,12.32
2023-01-28T10:06:56.525Z,10.65
2023-01-28T10:12:23.996Z,11.90
2023-01-28T10:17:42.669Z,11.60
2023-01-28T10:23:15.599Z,10.75
2023-01-28T10:28:29.888Z,13.35
2023-01-28T10:33:37.789Z,12.00
2023-01-28T10:38:39.744Z,11.77
2023-01-28T10:43:42.683Z,11.10
2023-01-28T10:48:57.483Z,12.35
2023-01-28T10:54:05.994Z,11.23
2023-01-28T10:59:27.385Z,12.68
2023-01-28T11:04:32.202Z,12.32
2023-01-28T11:09:46.309Z,11.15
2023-01-28T11:15:06.853Z,10.65
2023-01-28T11:20:25.635Z,11.23
2023-01-28T11:25:34.782Z,11.57
2023-01-28T11:30:40.356Z,10.45
2023-01-28T11:35:42.558Z,10.27
2023-01-28T11:41:05.405Z,9.68
2023-01-28T11:46:13.060Z,9.65
2023-01-28T11:51:18.869Z,8.88
2023-01-28T11:56:34.271Z,9.15
2023-01-28T12:01:51.244Z,8.50
2023-01-28T12:07:18.508Z,8.47
2023-01-28T12:13:11.200Z,8.93
2023-01-28T12:18:51.185Z,8.00
2023-01-28T12:24:22.792Z,7.45
2023-01-28T12:29:38.950Z,7.07
2023-01-28T12:35:00.422Z,6.88
2023-01-28T12:40:26.494Z,7.25
2023-01-28T12:45:41.057Z,6.55
2023-01-28T12:50:53.126Z,6.53
2023-01-28T12:56:19.194Z,6.47
2023-01-28T13:01:47.530Z,6.20
2023-01-28T13:07:05.597Z,5.57
2023-01-28T13:12:13.619Z,5.75
2023-01-28T13:17:30.230Z,4.90
2023-01-28T13:22:35.210Z,5.20
2023-01-28T13:27:36.951Z,5.25
2023-01-28T13:32:40.786Z,5.30
2023-01-28T13:37:47.017Z,5.05
2023-01-28T13:43:03.301Z,5.30
2023-01-28T13:48:23.940Z,5.85
2023-01-28T13:53:39.721Z,5.30
2023-01-28T13:59:28.307Z,5.07
2023-01-28T14:05:18.431Z,5.20
2023-01-28T14:10:33.859Z,5.45
2023-01-28T14:15:56.480Z,5.50
2023-01-28T14:21:09.299Z,5.28
2023-01-28T14:26:47.655Z,4.95
2023-01-28T14:31:52.887Z,5.32
2023-01-28T14:37:06.711Z,5.57
2023-01-28T14:42:25.610Z,5.15
2023-01-28T14:47:49.119Z,5.00
2023-01-28T14:52:53.526Z,4.70
2023-01-28T14:58:05.677Z,4.60
2023-01-28T15:03:24.844Z,4.97
2023-01-28T15:08:26.906Z,5.18
2023-01-28T15:13:38.699Z,5.25
2023-01-28T15:18:44.799Z,4.65
2023-01-28T15:23:58.910Z,4.35
2023-01-28T15:29:05.973Z,4.70
2023-01-28T15:34:16.655Z,4.70
2023-01-28T15:39:24.289Z,4.45
2023-01-28T15:44:34.293Z,4.05
2023-01-28T15:49:43.473Z,3.25
2023-01-28T15:54:52.609Z,3.67
2023-01-28T16:00:06.317Z,4.10
2023-01-28T16:05:38.701Z,3.90
2023-01-28T16:10:40.272Z,3.60
2023-01-28T16:15:47.665Z,3.95
2023-01-28T16:20:51.734Z,4.32
2023-01-28T16:26:06.493Z,3.65
2023-01-28T16:31:11.230Z,3.87
2023-01-28T16:36:14.632Z,3.85
2023-01-28T16:41:42.170Z,3.38
2023-01-28T16:46:53.024Z,3.83
2023-01-28T16:51:55.320Z,3.63
2023-01-28T16:56:57.998Z,3.95
2023-01-28T17:01:59.490Z,3.60
2023-01-28T17:07:02.339Z,3.45
2023-01-28T17:12:04.197Z,3.00
2023-01-28T17:17:10.804Z,3.00
2023-01-28T17:22:14.777Z,3.75
2023-01-28T17:27:16.269Z,3.50
2023-01-28T17:32:17.802Z,3.60
2023-01-28T17:37:19.295Z,3.90
2023-01-28T17:42:20.798Z,3.92
2023-01-28T17:47:26.909Z,4.40
2023-01-28T17:52:29.280Z,3.95
2023-01-28T17:57:30.792Z,3.85
2023-01-28T18:02:33.472Z,3.70
2023-01-28T18:07:39.729Z,3.40
2023-01-28T18:12:41.343Z,3.90
2023-01-28T18:17:42.883Z,3.90
2023-01-28T18:22:46.946Z,3.67
2023-01-28T18:27:49.333Z,3.88
2023-01-28T18:32:50.891Z,3.30
2023-01-28T18:37:56.694Z,3.80
2023-01-28T18:43:05.545Z,3.42
2023-01-28T18:48:07.773Z,3.80
2023-01-28T18:53:09.288Z,3.80
2023-01-28T18:58:10.872Z,3.75
2023-01-28T19:03:12.587Z,3.75
2023-01-28T19:08:18.780Z,3.85
2023-01-28T19:13:20.291Z,3.70
2023-01-28T19:18:27.139Z,4.07
2023-01-28T19:23:40.937Z,4.07
2023-01-28T19:28:52.343Z,4.53
2023-01-28T19:33:56.033Z,4.45
2023-01-28T19:39:08.040Z,3.78
2023-01-28T19:44:09.785Z,3.80
2023-01-28T19:49:14.142Z,3.78
2023-01-28T19:54:18.458Z,3.60
2023-01-28T19:59:20.009Z,3.85
2023-01-28T20:04:26.055Z,3.63
2023-01-28T20:09:30.176Z,4.50
2023-01-28T20:14:31.833Z,3.90
2023-01-28T20:19:34.831Z,3.63
2023-01-28T20:24:36.354Z,4.50
2023-01-28T20:29:37.916Z,4.00
2023-01-28T20:34:43.003Z,4.95
2023-01-28T20:39:44.834Z,4.10
2023-01-28T20:44:48.750Z,4.85
2023-01-28T20:49:50.279Z,4.47
2023-01-28T20:54:54.341Z,4.78
2023-01-28T20:59:55.885Z,4.50
2023-01-28T21:04:57.381Z,4.10
2023-01-28T21:10:01.237Z,4.40
2023-01-28T21:15:07.929Z,4.57
2023-01-28T21:20:11.606Z,4.53
2023-01-28T21:25:13.228Z,4.97
2023-01-28T21:30:15.700Z,5.05
2023-01-28T21:35:17.515Z,5.20
2023-01-28T21:40:24.443Z,5.13
2023-01-28T21:45:28.927Z,5.40
2023-01-28T21:50:52.926Z,4.03
2023-01-28T21:55:54.440Z,6.00
2023-01-28T22:00:55.940Z,5.50
2023-01-28T22:06:00.462Z,5.20
2023-01-28T22:11:04.901Z,5.40
2023-01-28T22:16:09.232Z,5.72
2023-01-28T22:21:12.924Z,5.63
2023-01-28T22:26:19.387Z,5.13
2023-01-28T22:31:24.079Z,5.87
2023-01-28T22:36:27.955Z,5.38
2023-01-28T22:41:30.194Z,6.25
2023-01-28T22:46:37.894Z,5.60
2023-01-28T22:51:39.473Z,5.15
2023-01-28T22:56:40.984Z,6.70
2023-01-28T23:01:50.019Z,5.40
2023-01-28T23:06:51.598Z,5.93
2023-01-28T23:11:53.128Z,5.45
2023-01-28T23:17:13.456Z,5.47
2023-01-28T23:22:52.565Z,5.65
2023-01-28T23:27:56.188Z,5.53
2023-01-28T23:33:04.400Z,6.32
2023-01-28T23:38:09.244Z,6.32
2023-01-28T23:43:10.853Z,5.60
2023-01-28T23:48:13.523Z,5.57
2023-01-28T23:53:17.415Z,6.30
2023-01-28T23:58:33.544Z,6.40
